Airfield :
LOGIN :

Register | Disclaimer

   EN    FR    IT 

 










Legend :    VFR   Marginal VFR   IFR   Intensive IFR   Very Intensive IFR
Visi :
Ceiling :
>= 8 km
>= 3000ft
5 to 8 km
1000 to 3000 ft
1500m to 5 km
500 to 1000 ft
800 to 1500m
200 to 500 ft
< 800m
< 200 ft
Symbols :   Thunderstorms  Fog  Heavy snow  Heavy precipitations  Wind > 20 kt
SIGMETs :     Misc.  Thunderstorms  Icing  Turbulence  Mountain Waves  Volcanic Ashes






- Airport Elevation : 194 ft
- IATA code : IEG


EPZG - Zielona Gora Babimost

CURRENT METAR :
  • 191600Z 25013KT 9999 SCT033 05/03 Q1013

EXPIRED METARs :
  • 191530Z 24011KT 9999 SCT016 05/03 Q1012
  • 191500Z 25012KT 9999 BKN014 BKN044 06/04 Q1012
  • 191430Z 25009KT 9999 BKN013 BKN027 05/04 Q1012
  • 191400Z 26008KT 230V290 9999 SCT016 BKN035 05/04 Q1011
  • 191330Z 27010KT 240V310 9999 -RA SCT013 OVC036 05/03 Q1011

TAF TAF EPZG
Valid from the 19 at 15:00 until the 20 at 00:00 UTC


191430Z 1915/1924 26012KT 9999 BKN025
TEMPO 1915/1924 27016G27KT 4000 SHRA BKN009 BKN015CB
PROB40
TEMPO 1915/1918 26022G37KT 2500 SHRA SHGS BKN010CB



MET'MAP, your aeronautical weather chart ! - Copyright ORBIFLY December 2007 - Disclaimer

ORBIFLY MET'MAP TEAM :

Programming & Development : Alexandra Zaïnal
Concept & original design : Baudouin d'Aumeries
Assistance for programming : Marc-Olivier Méhu
Technical & hardware support : Manuel Goepfert

Contact : metmap@orbifly.com




SOURCES & CREDITS :

   NOAA